Time;durP1;ratioP1;P1;durP2;ratioP2;P2;SDS_P1;SDS_P2;PMS_P1;PMS_P2;Temp;Humidity;BMP_temperature;BMP_pressure;BME280_temperature;BME280_humidity;BME280_pressure;Samples;Min_cycle;Max_cycle;Signal;HPM_P1;HPM_P2
2022/05/27 00:01:50;;;;;;;0.70;0.47;;;24.20;47.50;;;;;;5058398;28;20024;-61
2022/05/27 00:04:15;;;;;;;1.10;0.60;;;24.20;47.50;;;;;;5059604;28;20033;-61
2022/05/27 00:06:41;;;;;;;0.70;0.70;;;24.20;47.50;;;;;;5056499;28;20025;-61
2022/05/27 00:09:07;;;;;;;1.05;0.50;;;24.20;47.60;;;;;;5059056;28;20075;-59
2022/05/27 00:11:32;;;;;;;1.08;0.70;;;24.20;47.50;;;;;;5058017;28;20043;-62
2022/05/27 00:13:59;;;;;;;0.65;0.60;;;24.20;47.50;;;;;;5058914;28;20020;-64
2022/05/27 00:16:25;;;;;;;0.55;0.50;;;24.20;47.50;;;;;;5058981;28;21565;-58
2022/05/27 00:18:50;;;;;;;1.17;0.60;;;24.20;47.50;;;;;;5060400;28;20043;-60
2022/05/27 00:21:17;;;;;;;0.98;0.60;;;24.20;47.60;;;;;;5054092;28;20089;-63
2022/05/27 00:23:42;;;;;;;0.98;0.68;;;24.20;47.50;;;;;;5057169;28;20380;-61
2022/05/27 00:26:08;;;;;;;0.60;0.50;;;24.20;47.50;;;;;;5058685;28;20021;-59
2022/05/27 00:28:34;;;;;;;0.57;0.50;;;24.20;47.50;;;;;;5060971;28;20078;-64
2022/05/27 00:31:00;;;;;;;0.90;0.50;;;24.20;47.50;;;;;;5058060;28;20036;-60
2022/05/27 00:33:25;;;;;;;0.50;0.50;;;24.20;47.50;;;;;;5060249;28;20040;-65
2022/05/27 00:35:51;;;;;;;0.45;0.45;;;24.20;47.60;;;;;;5054924;28;20123;-61
2022/05/27 00:38:17;;;;;;;0.77;0.50;;;24.10;47.50;;;;;;5058664;28;20838;-58
2022/05/27 00:40:47;;;;;;;1.00;0.60;;;24.20;47.50;;;;;;5058563;28;20016;-59
2022/05/27 00:43:12;;;;;;;;;;;24.10;47.50;;;;;;5060588;28;20035;-60
2022/05/27 00:45:41;;;;;;;0.73;0.70;;;24.20;47.50;;;;;;5057074;28;19908;-60
2022/05/27 00:48:12;;;;;;;0.60;0.50;;;24.20;47.50;;;;;;5059585;28;20033;-63
2022/05/27 00:50:42;;;;;;;0.50;0.50;;;24.20;47.50;;;;;;5056349;28;20034;-63
2022/05/27 00:53:08;;;;;;;;;;;24.10;47.50;;;;;;5057729;28;20028;-60
2022/05/27 00:55:41;;;;;;;0.63;0.50;;;24.10;47.50;;;;;;5057104;28;20240;-58
2022/05/27 00:58:15;;;;;;;0.75;0.57;;;24.10;47.50;;;;;;5059038;28;20147;-63
2022/05/27 01:00:40;;;;;;;0.88;0.50;;;24.10;47.50;;;;;;5056818;28;20032;-58
2022/05/27 01:03:09;;;;;;;0.70;0.50;;;24.10;47.50;;;;;;5056472;28;20771;-64
2022/05/27 01:05:34;;;;;;;0.90;0.65;;;24.10;47.50;;;;;;5052153;28;20032;-64
2022/05/27 01:08:05;;;;;;;0.63;0.50;;;24.10;47.50;;;;;;5056111;28;20093;-59
2022/05/27 01:10:57;;;;;;;0.82;0.50;;;24.10;47.50;;;;;;5056875;28;20103;-63
2022/05/27 01:13:42;;;;;;;0.60;0.50;;;24.10;47.50;;;;;;5057694;28;20143;-62
2022/05/27 01:16:13;;;;;;;0.65;0.50;;;24.10;47.50;;;;;;5055664;28;20021;-60
2022/05/27 01:21:55;;;;;;;0.63;0.50;;;24.10;47.50;;;;;;5054028;28;20051;-59
2022/05/27 01:24:58;;;;;;;0.60;0.50;;;24.10;47.50;;;;;;5055418;28;20036;-63
2022/05/27 01:28:01;;;;;;;0.80;0.50;;;24.10;47.50;;;;;;5057779;28;20048;-59
2022/05/27 01:30:33;;;;;;;0.93;0.60;;;24.10;47.50;;;;;;5054923;28;20483;-62
2022/05/27 01:33:07;;;;;;;0.95;0.60;;;24.10;47.50;;;;;;5056299;28;20112;-60
2022/05/27 01:36:02;;;;;;;0.90;0.55;;;24.10;47.50;;;;;;5055649;28;20121;-63
2022/05/27 01:38:44;;;;;;;1.08;0.60;;;24.10;47.50;;;;;;4998936;28;20052;-60
2022/05/27 01:41:48;;;;;;;1.08;0.63;;;24.10;47.50;;;;;;5056387;28;20027;-60
2022/05/27 01:44:57;;;;;;;0.80;0.60;;;24.10;47.60;;;;;;5057159;28;20028;-62
2022/05/27 01:47:38;;;;;;;;;;;24.10;47.60;;;;;;5048247;28;20056;-64
2022/05/27 01:50:25;;;;;;;0.98;0.60;;;24.00;47.50;;;;;;5057065;28;21047;-61
2022/05/27 01:53:09;;;;;;;0.47;0.47;;;24.10;47.50;;;;;;5056512;28;20105;-63
2022/05/27 01:55:40;;;;;;;0.50;0.50;;;24.00;47.50;;;;;;5056115;28;20055;-58
2022/05/27 01:58:12;;;;;;;0.65;0.60;;;24.10;47.50;;;;;;5058270;28;20063;-64
2022/05/27 02:00:41;;;;;;;0.43;0.43;;;24.10;47.60;;;;;;5057204;28;20052;-63
2022/05/27 02:03:21;;;;;;;0.63;0.52;;;24.10;47.60;;;;;;5056712;28;20020;-64
2022/05/27 02:06:08;;;;;;;0.50;0.50;;;24.00;47.50;;;;;;5055063;28;20051;-60
2022/05/27 02:08:52;;;;;;;0.50;0.50;;;24.00;47.50;;;;;;5056700;28;20492;-60
2022/05/27 02:11:22;;;;;;;0.90;0.57;;;24.00;47.50;;;;;;5057178;28;20028;-60
2022/05/27 02:14:09;;;;;;;0.57;0.47;;;24.00;47.50;;;;;;5057852;28;20051;-61
2022/05/27 02:16:44;;;;;;;0.60;0.50;;;24.00;47.50;;;;;;5056576;28;20566;-59
2022/05/27 02:19:46;;;;;;;0.98;0.60;;;24.00;47.50;;;;;;5058585;28;20158;-62
2022/05/27 02:22:19;;;;;;;0.63;0.50;;;24.00;47.50;;;;;;5049162;28;20149;-64
2022/05/27 02:25:14;;;;;;;0.90;0.50;;;24.00;47.50;;;;;;5058108;28;20024;-60
2022/05/27 02:27:48;;;;;;;0.63;0.55;;;24.00;47.50;;;;;;5054058;28;20044;-62
2022/05/27 02:30:16;;;;;;;0.60;0.50;;;24.00;47.50;;;;;;5055753;28;20035;-64
2022/05/27 02:35:07;;;;;;;0.50;0.50;;;24.00;47.50;;;;;;5056997;28;20528;-60
2022/05/27 02:35:39;;;;;;;1.42;0.50;;;24.00;48.10;;;;;;5056177;28;20846;-64
2022/05/27 02:38:05;;;;;;;0.65;0.50;;;24.00;47.50;;;;;;5054818;28;20533;-60
2022/05/27 02:40:36;;;;;;;0.50;0.50;;;24.00;47.60;;;;;;5055132;28;20044;-60
2022/05/27 02:43:10;;;;;;;0.60;0.40;;;23.90;47.50;;;;;;5058126;28;20081;-58
2022/05/27 02:45:41;;;;;;;0.90;0.60;;;23.90;47.50;;;;;;5057563;28;20063;-58
2022/05/27 02:48:35;;;;;;;0.40;0.40;;;23.90;47.50;;;;;;5056477;28;20086;-61
2022/05/27 02:51:30;;;;;;;0.60;0.50;;;23.90;47.50;;;;;;5055494;28;20063;-58
2022/05/27 02:54:19;;;;;;;0.50;0.50;;;23.90;47.50;;;;;;5055683;28;20032;-59
2022/05/27 02:57:01;;;;;;;0.60;0.60;;;23.90;47.50;;;;;;4994151;28;20040;-64
2022/05/27 02:59:28;;;;;;;0.70;0.60;;;23.90;47.50;;;;;;5057847;28;20035;-58
2022/05/27 03:01:54;;;;;;;0.65;0.60;;;23.90;47.50;;;;;;5055034;28;20028;-60
2022/05/27 03:04:20;;;;;;;1.00;0.65;;;23.90;47.50;;;;;;5056094;28;20091;-62
2022/05/27 03:06:53;;;;;;;0.50;0.50;;;23.90;47.50;;;;;;5054917;28;20610;-62
2022/05/27 03:09:40;;;;;;;0.68;0.50;;;23.90;47.50;;;;;;5056403;28;20028;-64
2022/05/27 03:12:17;;;;;;;0.40;0.40;;;23.90;47.50;;;;;;5057036;28;20491;-61
2022/05/27 03:15:00;;;;;;;0.50;0.40;;;23.90;47.50;;;;;;5055792;28;20032;-63
2022/05/27 03:17:58;;;;;;;0.45;0.40;;;23.90;47.50;;;;;;5056844;28;20147;-63
2022/05/27 03:20:55;;;;;;;0.40;0.30;;;23.90;47.50;;;;;;5056327;28;20103;-60
2022/05/27 03:23:54;;;;;;;0.68;0.50;;;23.90;47.50;;;;;;5055913;28;20081;-62
2022/05/27 03:26:43;;;;;;;0.73;0.65;;;23.90;47.60;;;;;;5057154;28;20016;-64
2022/05/27 03:29:25;;;;;;;;;;;23.90;47.50;;;;;;5062073;28;20456;-64
2022/05/27 03:32:09;;;;;;;0.43;0.43;;;23.90;47.50;;;;;;5058327;28;19923;-63
2022/05/27 03:34:49;;;;;;;0.55;0.50;;;23.90;47.60;;;;;;5059172;28;20107;-63
2022/05/27 03:37:30;;;;;;;0.50;0.50;;;23.90;47.60;;;;;;5056616;28;20739;-63
2022/05/27 03:40:08;;;;;;;0.57;0.50;;;23.90;47.60;;;;;;5059336;28;20522;-60
2022/05/27 03:42:36;;;;;;;0.63;0.60;;;23.90;48.10;;;;;;5058899;28;20044;-62
2022/05/27 03:45:07;;;;;;;0.68;0.65;;;23.80;47.50;;;;;;5060714;28;20075;-59
2022/05/27 03:47:34;;;;;;;0.70;0.50;;;23.90;47.60;;;;;;5058633;28;20032;-62
2022/05/27 03:50:00;;;;;;;1.17;0.40;;;23.90;47.50;;;;;;5059529;28;20032;-61
2022/05/27 03:52:37;;;;;;;0.70;0.50;;;23.80;47.50;;;;;;5057234;28;20044;-64
2022/05/27 03:55:04;;;;;;;0.47;0.45;;;23.80;47.50;;;;;;5056319;28;20223;-59
2022/05/27 03:57:29;;;;;;;0.57;0.50;;;23.80;47.50;;;;;;5057670;28;20552;-60
2022/05/27 03:59:55;;;;;;;0.57;0.57;;;23.80;47.50;;;;;;5059840;28;20026;-62
2022/05/27 04:02:20;;;;;;;0.55;0.50;;;23.80;47.50;;;;;;5058048;28;20040;-58
2022/05/27 04:04:46;;;;;;;0.82;0.60;;;23.80;47.50;;;;;;5057816;28;20028;-57
2022/05/27 04:07:11;;;;;;;0.40;0.40;;;23.80;47.50;;;;;;5055323;28;20153;-61
2022/05/27 04:09:37;;;;;;;0.90;0.60;;;23.80;47.50;;;;;;5056255;28;20414;-59
2022/05/27 04:12:04;;;;;;;0.40;0.40;;;23.80;47.50;;;;;;5059233;28;20135;-64
2022/05/27 04:14:31;;;;;;;0.50;0.50;;;23.80;47.50;;;;;;5058978;28;20043;-59
2022/05/27 04:17:27;;;;;;;1.13;0.57;;;23.80;47.50;;;;;;5057717;28;20056;-58
2022/05/27 04:19:43;;;;;;;1.45;0.68;;;23.80;47.50;;;;;;5059365;28;20127;-62
2022/05/27 04:22:09;;;;;;;0.85;0.50;;;23.80;47.50;;;;;;5055143;28;20025;-64
2022/05/27 04:24:34;;;;;;;0.50;0.50;;;23.80;47.50;;;;;;5057690;28;20111;-65
2022/05/27 04:27:08;;;;;;;1.48;0.50;;;23.80;47.50;;;;;;5059033;28;20375;-62
2022/05/27 04:29:38;;;;;;;0.50;0.50;;;23.80;47.50;;;;;;5058071;28;20921;-64
2022/05/27 04:32:03;;;;;;;;;;;23.80;47.50;;;;;;5058785;28;20361;-64
2022/05/27 04:34:29;;;;;;;0.70;0.60;;;23.80;47.50;;;;;;5057182;28;19912;-64
2022/05/27 04:36:54;;;;;;;0.52;0.50;;;23.70;47.40;;;;;;5058157;28;20104;-63
2022/05/27 04:39:20;;;;;;;0.90;0.60;;;23.70;47.50;;;;;;5057600;28;21611;-65
2022/05/27 04:41:46;;;;;;;0.60;0.50;;;23.80;47.50;;;;;;5060265;28;20551;-60
2022/05/27 04:44:12;;;;;;;0.80;0.60;;;23.70;47.50;;;;;;5058827;28;20410;-64
2022/05/27 04:46:38;;;;;;;0.47;0.47;;;23.70;47.40;;;;;;5057368;28;20093;-65
2022/05/27 04:49:03;;;;;;;0.40;0.40;;;23.70;47.40;;;;;;5058549;28;20103;-61
2022/05/27 04:51:29;;;;;;;0.63;0.50;;;23.70;47.40;;;;;;5055017;28;20040;-63
2022/05/27 04:53:55;;;;;;;0.95;0.60;;;23.70;47.40;;;;;;5054838;28;20044;-63
2022/05/27 04:56:25;;;;;;;1.38;0.65;;;23.70;47.40;;;;;;5057545;28;20487;-58
2022/05/27 04:58:51;;;;;;;0.52;0.52;;;23.70;47.40;;;;;;5059331;28;20028;-62
2022/05/27 05:01:16;;;;;;;0.75;0.60;;;23.70;47.40;;;;;;5055708;28;20092;-61
2022/05/27 05:03:42;;;;;;;0.75;0.65;;;23.70;47.40;;;;;;5056163;28;20511;-62
2022/05/27 05:06:07;;;;;;;0.63;0.60;;;23.70;47.40;;;;;;5054153;28;20096;-63
2022/05/27 05:08:36;;;;;;;1.48;0.95;;;23.70;47.40;;;;;;5056907;28;20040;-64
2022/05/27 05:11:03;;;;;;;0.63;0.50;;;23.70;47.40;;;;;;5055991;28;20358;-59
2022/05/27 05:13:30;;;;;;;0.55;0.55;;;23.70;47.40;;;;;;5057749;28;20036;-59
2022/05/27 05:15:57;;;;;;;1.05;0.70;;;23.70;47.40;;;;;;5058492;28;20036;-60
2022/05/27 05:18:23;;;;;;;0.95;0.68;;;23.70;47.40;;;;;;5057722;28;20036;-59
2022/05/27 05:20:49;;;;;;;0.88;0.70;;;23.70;47.40;;;;;;5058189;28;20020;-58
2022/05/27 05:23:15;;;;;;;0.70;0.60;;;23.70;47.40;;;;;;5054625;28;20129;-64
2022/05/27 05:25:41;;;;;;;0.50;0.50;;;23.70;47.40;;;;;;5058678;28;20032;-62
2022/05/27 05:28:06;;;;;;;0.60;0.60;;;23.70;47.40;;;;;;5058204;28;20107;-60
2022/05/27 05:30:32;;;;;;;0.52;0.50;;;23.70;47.40;;;;;;5057713;28;20052;-60
2022/05/27 05:32:57;;;;;;;0.70;0.50;;;23.60;47.40;;;;;;5059183;28;20118;-64
2022/05/27 05:35:23;;;;;;;0.60;0.57;;;23.60;47.30;;;;;;5057534;28;20040;-62
2022/05/27 05:37:50;;;;;;;1.00;0.90;;;23.70;47.40;;;;;;5055036;28;20068;-65
2022/05/27 05:40:16;;;;;;;1.20;0.60;;;23.70;47.40;;;;;;5057615;28;20563;-63
2022/05/27 05:42:42;;;;;;;0.63;0.60;;;23.60;47.30;;;;;;5058079;28;20032;-61
2022/05/27 05:45:12;;;;;;;0.88;0.55;;;23.60;47.30;;;;;;5056831;28;20036;-58
2022/05/27 05:47:37;;;;;;;0.80;0.60;;;23.70;47.40;;;;;;5056283;28;20506;-61
2022/05/27 05:50:03;;;;;;;0.60;0.40;;;23.60;47.30;;;;;;5059519;28;20115;-63
2022/05/27 05:52:29;;;;;;;0.60;0.50;;;23.60;47.30;;;;;;5055102;28;20123;-63
2022/05/27 05:54:55;;;;;;;0.90;0.65;;;23.60;47.30;;;;;;5056836;28;20060;-62
2022/05/27 05:57:21;;;;;;;0.68;0.60;;;23.60;47.30;;;;;;5057624;28;20036;-63
2022/05/27 05:59:47;;;;;;;1.45;0.60;;;23.60;47.30;;;;;;5042420;28;20025;-62
2022/05/27 06:02:13;;;;;;;0.70;0.60;;;23.60;47.30;;;;;;5056457;28;20025;-62
2022/05/27 06:04:38;;;;;;;0.85;0.60;;;23.60;47.30;;;;;;5059119;28;20040;-63
2022/05/27 06:07:04;;;;;;;0.80;0.70;;;23.60;47.30;;;;;;5054535;28;20021;-58
2022/05/27 06:09:30;;;;;;;0.80;0.60;;;23.60;47.30;;;;;;5057331;28;20032;-64
2022/05/27 06:11:57;;;;;;;1.10;0.60;;;23.60;47.30;;;;;;5058427;28;20117;-63
2022/05/27 06:14:23;;;;;;;0.60;0.60;;;23.60;47.30;;;;;;5057534;28;20028;-59
2022/05/27 06:16:49;;;;;;;1.20;0.60;;;23.60;47.40;;;;;;5057600;28;20024;-61
2022/05/27 06:19:15;;;;;;;0.65;0.55;;;23.60;47.40;;;;;;5057514;28;20074;-59
2022/05/27 06:21:40;;;;;;;1.25;0.68;;;23.60;47.40;;;;;;5054529;28;20052;-60
2022/05/27 06:24:06;;;;;;;0.65;0.52;;;23.60;47.40;;;;;;5056224;28;20769;-61
2022/05/27 06:26:32;;;;;;;0.80;0.60;;;23.60;47.40;;;;;;5057199;28;20040;-58
2022/05/27 06:34:26;;;;;;;0.60;0.60;;;23.60;47.40;;;;;;5056304;28;20164;-64
2022/05/27 06:36:57;;;;;;;0.70;0.60;;;23.60;47.40;;;;;;5055113;28;20146;-59
2022/05/27 06:39:24;;;;;;;1.33;0.70;;;23.60;47.40;;;;;;5055864;28;20115;-62
2022/05/27 06:41:50;;;;;;;1.85;0.70;;;23.60;47.40;;;;;;5057535;28;20092;-60
2022/05/27 06:44:17;;;;;;;1.25;0.82;;;23.60;47.40;;;;;;5056451;28;20115;-58
2022/05/27 06:46:43;;;;;;;0.80;0.50;;;23.60;47.40;;;;;;5057264;28;20036;-58
2022/05/27 06:49:09;;;;;;;0.50;0.50;;;23.60;47.40;;;;;;5052862;28;20059;-60
2022/05/27 06:51:36;;;;;;;0.63;0.63;;;23.50;47.40;;;;;;5055415;28;20040;-64
2022/05/27 06:54:03;;;;;;;1.48;0.50;;;23.60;47.40;;;;;;5053067;28;20040;-62
2022/05/27 06:56:28;;;;;;;1.38;0.93;;;23.60;47.40;;;;;;5056481;28;20037;-60
2022/05/27 06:58:54;;;;;;;0.82;0.60;;;23.50;47.40;;;;;;5059398;28;20039;-62
2022/05/27 07:01:19;;;;;;;1.40;0.63;;;23.50;47.40;;;;;;5060485;28;20122;-60
2022/05/27 07:03:45;;;;;;;0.88;0.70;;;23.50;47.40;;;;;;5060949;28;20037;-64
2022/05/27 07:06:12;;;;;;;0.88;0.60;;;23.60;47.40;;;;;;5058884;28;20024;-64
2022/05/27 07:08:38;;;;;;;0.85;0.63;;;23.50;47.40;;;;;;5060625;28;20055;-63
2022/05/27 07:11:05;;;;;;;0.77;0.63;;;23.50;47.40;;;;;;5060280;28;20034;-65
2022/05/27 07:13:31;;;;;;;0.82;0.68;;;23.50;47.40;;;;;;5060449;28;20103;-60
2022/05/27 07:15:58;;;;;;;1.05;0.70;;;23.50;47.40;;;;;;5059599;28;20620;-60
2022/05/27 07:18:23;;;;;;;0.80;0.70;;;23.60;47.50;;;;;;5061412;28;20067;-59
2022/05/27 07:20:49;;;;;;;0.85;0.60;;;23.50;47.40;;;;;;5058642;28;20060;-60
2022/05/27 07:23:17;;;;;;;1.05;0.70;;;23.50;47.50;;;;;;5058166;28;20397;-61
2022/05/27 07:25:44;;;;;;;0.65;0.60;;;23.50;47.40;;;;;;5059969;28;20085;-59
2022/05/27 07:28:11;;;;;;;0.70;0.70;;;23.50;47.50;;;;;;5060632;28;20547;-62
2022/05/27 07:30:37;;;;;;;0.73;0.60;;;23.50;47.50;;;;;;5059771;28;20077;-59
2022/05/27 07:33:03;;;;;;;0.98;0.65;;;23.50;47.50;;;;;;5059345;28;20522;-64
2022/05/27 07:35:29;;;;;;;1.30;0.70;;;23.50;47.50;;;;;;5057927;28;20039;-63
2022/05/27 07:37:54;;;;;;;0.98;0.73;;;23.50;47.50;;;;;;5055626;28;20353;-62
2022/05/27 07:40:21;;;;;;;1.02;0.70;;;23.50;47.50;;;;;;5060494;28;20036;-59
2022/05/27 07:42:48;;;;;;;1.58;0.70;;;23.50;47.50;;;;;;5062111;28;20032;-60
2022/05/27 07:45:15;;;;;;;1.17;0.70;;;23.50;47.50;;;;;;5058930;28;20637;-60
2022/05/27 07:47:41;;;;;;;1.05;0.60;;;23.50;47.50;;;;;;5058050;28;20036;-60
2022/05/27 07:50:08;;;;;;;0.95;0.60;;;23.50;47.60;;;;;;5060054;28;20425;-59
2022/05/27 07:52:34;;;;;;;0.82;0.60;;;23.50;47.50;;;;;;5058035;28;20674;-58
2022/05/27 07:55:01;;;;;;;1.38;0.63;;;23.50;47.60;;;;;;5057760;28;20158;-60
2022/05/27 08:00:49;;;;;;;0.85;0.60;;;23.50;47.60;;;;;;5053351;28;20094;-63
2022/05/27 08:03:17;;;;;;;0.82;0.57;;;23.50;47.60;;;;;;5058006;28;20032;-62
2022/05/27 08:05:43;;;;;;;0.93;0.60;;;23.40;47.50;;;;;;5056205;28;20036;-58
2022/05/27 08:08:09;;;;;;;1.35;0.70;;;23.50;47.50;;;;;;5057363;28;20043;-59
2022/05/27 08:10:36;;;;;;;0.88;0.60;;;23.50;47.60;;;;;;5054978;28;20028;-60
2022/05/27 08:13:02;;;;;;;0.88;0.70;;;23.50;47.60;;;;;;5057891;28;20051;-61
2022/05/27 08:15:28;;;;;;;0.65;0.55;;;23.50;47.60;;;;;;5058721;28;20032;-63
2022/05/27 08:17:54;;;;;;;0.63;0.60;;;23.50;47.60;;;;;;5061263;28;20036;-62
2022/05/27 08:20:25;;;;;;;0.73;0.70;;;23.40;47.50;;;;;;5057478;28;20069;-62
2022/05/27 08:22:53;;;;;;;0.65;0.60;;;23.50;47.60;;;;;;5055881;28;20048;-61
2022/05/27 08:25:23;;;;;;;0.57;0.57;;;23.40;47.50;;;;;;5053444;28;20056;-62
2022/05/27 08:27:49;;;;;;;1.08;0.60;;;23.40;47.50;;;;;;5061033;28;20032;-61
2022/05/27 08:30:19;;;;;;;0.82;0.60;;;23.40;47.50;;;;;;5055966;28;20142;-63
2022/05/27 08:32:47;;;;;;;0.70;0.60;;;23.40;47.50;;;;;;5057357;28;20059;-62
2022/05/27 08:38:04;;;;;;;0.63;0.60;;;23.40;47.60;;;;;;5060125;28;20593;-64
2022/05/27 08:41:08;;;;;;;0.75;0.60;;;23.40;47.60;;;;;;5057275;28;20032;-58
2022/05/27 08:43:51;;;;;;;0.63;0.60;;;23.40;47.60;;;;;;5056919;28;20039;-60
2022/05/27 08:46:43;;;;;;;0.98;0.70;;;23.40;47.60;;;;;;5057315;28;20029;-62
2022/05/27 08:49:15;;;;;;;0.90;0.70;;;23.40;47.50;;;;;;5058285;28;20107;-60
2022/05/27 08:52:08;;;;;;;1.13;0.70;;;23.40;47.50;;;;;;5055346;28;20457;-64
2022/05/27 08:54:40;;;;;;;0.70;0.60;;;23.40;47.50;;;;;;5058572;28;20460;-58
2022/05/27 08:59:59;;;;;;;0.75;0.60;;;23.40;47.60;;;;;;5061089;28;20047;-62
2022/05/27 09:02:42;;;;;;;1.10;0.70;;;23.40;47.60;;;;;;5057127;28;20032;-62
2022/05/27 09:05:33;;;;;;;0.80;0.60;;;23.40;47.60;;;;;;5057577;28;20027;-60
2022/05/27 09:08:05;;;;;;;0.65;0.60;;;23.40;47.50;;;;;;5056932;28;20038;-62
2022/05/27 09:11:11;;;;;;;0.98;0.75;;;23.40;47.60;;;;;;5046989;28;20062;-61
2022/05/27 09:13:40;;;;;;;0.95;0.60;;;23.50;47.60;;;;;;5057561;28;20033;-60
2022/05/27 09:16:37;;;;;;;0.57;0.55;;;23.40;47.50;;;;;;5057216;28;20035;-59
2022/05/27 09:19:05;;;;;;;1.05;0.60;;;23.40;47.60;;;;;;5054431;28;20048;-60
2022/05/27 09:21:44;;;;;;;0.73;0.60;;;23.40;47.50;;;;;;5053290;28;20103;-61
2022/05/27 09:24:15;;;;;;;0.82;0.60;;;23.40;47.50;;;;;;5054290;28;20051;-63
2022/05/27 09:27:01;;;;;;;1.05;0.77;;;23.40;47.50;;;;;;5051479;28;20035;-59
2022/05/27 09:29:33;;;;;;;0.82;0.60;;;23.40;47.50;;;;;;5054714;28;20027;-61
2022/05/27 09:32:06;;;;;;;0.90;0.70;;;23.40;48.00;;;;;;5054213;28;20045;-59
2022/05/27 09:34:36;;;;;;;2.10;0.82;;;23.40;47.50;;;;;;5055243;28;20020;-59
2022/05/27 09:37:05;;;;;;;1.75;0.80;;;23.50;47.50;;;;;;5053760;28;20038;-62
2022/05/27 09:39:31;;;;;;;;;;;23.50;47.20;;;;;;5055104;28;20059;-62
2022/05/27 09:42:38;;;;;;;1.13;0.75;;;23.50;47.00;;;;;;5053442;28;19916;-60
2022/05/27 09:45:05;;;;;;;0.85;0.70;;;23.50;46.70;;;;;;4933714;28;20443;-60
2022/05/27 09:47:33;;;;;;;1.10;0.60;;;23.50;46.60;;;;;;5040921;28;20040;-61
2022/05/27 09:50:06;;;;;;;0.63;0.63;;;23.60;46.50;;;;;;5055179;28;20020;-62
2022/05/27 09:52:36;;;;;;;0.90;0.63;;;23.60;46.90;;;;;;5057414;28;20032;-61
2022/05/27 09:55:16;;;;;;;1.00;0.70;;;23.60;46.30;;;;;;5056293;28;20056;-64
2022/05/27 09:58:00;;;;;;;1.52;0.90;;;23.60;46.20;;;;;;5058067;28;20089;-61
2022/05/27 10:00:35;;;;;;;1.45;0.90;;;23.70;46.10;;;;;;5057933;28;20040;-62
2022/05/27 10:03:22;;;;;;;2.67;0.88;;;23.70;45.90;;;;;;5058619;28;20076;-56
2022/05/27 10:06:00;;;;;;;1.30;0.90;;;23.70;46.10;;;;;;5054836;28;20195;-61
2022/05/27 10:08:35;;;;;;;1.27;0.90;;;23.70;45.70;;;;;;5056509;28;20036;-60
2022/05/27 10:11:19;;;;;;;1.17;0.85;;;23.80;45.70;;;;;;5053069;28;20028;-62
2022/05/27 10:13:47;;;;;;;2.22;1.00;;;23.80;45.60;;;;;;5055581;28;20112;-61
2022/05/27 10:16:20;;;;;;;1.27;0.90;;;23.80;45.50;;;;;;5053217;28;20042;-63
2022/05/27 10:18:46;;;;;;;1.67;0.85;;;23.80;45.60;;;;;;5053130;28;20391;-59
2022/05/27 10:21:18;;;;;;;1.67;0.90;;;23.90;45.60;;;;;;5055670;28;20036;-62
2022/05/27 10:23:46;;;;;;;2.20;0.93;;;23.90;45.50;;;;;;5055097;28;20099;-60
2022/05/27 10:26:21;;;;;;;2.47;1.10;;;23.90;45.40;;;;;;5057681;28;20028;-61
2022/05/27 10:29:01;;;;;;;2.03;1.00;;;23.90;45.30;;;;;;5054512;28;20036;-62
2022/05/27 10:31:27;;;;;;;1.20;0.85;;;24.00;45.30;;;;;;5056524;28;20044;-61
2022/05/27 10:33:53;;;;;;;1.95;0.90;;;24.00;45.40;;;;;;5055490;28;20037;-62
2022/05/27 10:36:22;;;;;;;2.97;1.00;;;24.00;45.50;;;;;;5053146;28;20024;-58
2022/05/27 10:39:22;;;;;;;1.75;1.00;;;24.00;45.30;;;;;;5055025;28;20709;-61
2022/05/27 10:41:59;;;;;;;1.92;1.08;;;24.10;45.30;;;;;;5055103;28;20033;-61
2022/05/27 10:44:45;;;;;;;1.95;0.90;;;24.10;45.20;;;;;;5055684;28;20567;-61
2022/05/27 10:47:40;;;;;;;1.33;0.80;;;24.10;45.20;;;;;;5057349;28;20036;-60
2022/05/27 10:50:24;;;;;;;2.67;1.10;;;24.10;45.20;;;;;;5054178;28;20028;-62
2022/05/27 10:53:25;;;;;;;1.60;1.00;;;24.10;45.20;;;;;;5053592;28;20531;-60
2022/05/27 10:56:01;;;;;;;1.95;0.98;;;24.10;45.10;;;;;;5050515;28;20488;-63
2022/05/27 11:04:20;;;;;;;2.28;1.20;;;24.20;45.30;;;;;;5055199;28;20371;-60
2022/05/27 11:07:14;;;;;;;1.77;0.95;;;24.20;45.30;;;;;;5056900;28;20029;-64
2022/05/27 11:09:57;;;;;;;1.90;0.90;;;24.20;45.20;;;;;;5055968;28;20060;-60
2022/05/27 11:16:08;;;;;;;1.52;0.93;;;24.20;45.10;;;;;;5048441;28;20039;-59
2022/05/27 11:18:51;;;;;;;1.58;1.08;;;24.30;45.20;;;;;;5055399;28;20024;-60
2022/05/27 11:21:34;;;;;;;2.17;1.00;;;24.20;45.20;;;;;;5053480;28;20040;-60
2022/05/27 11:24:15;;;;;;;4.07;0.98;;;24.30;45.10;;;;;;5054886;28;20109;-63
2022/05/27 11:26:54;;;;;;;1.70;0.93;;;24.30;45.10;;;;;;5056546;28;20036;-59
2022/05/27 11:29:57;;;;;;;2.50;1.10;;;24.20;45.00;;;;;;5056410;28;20055;-64
2022/05/27 11:32:44;;;;;;;2.65;1.15;;;24.20;44.90;;;;;;5056563;28;20127;-62
2022/05/27 11:35:44;;;;;;;1.58;1.02;;;24.30;44.70;;;;;;5056550;28;20731;-62
2022/05/27 11:38:21;;;;;;;1.77;0.88;;;24.20;44.70;;;;;;5054856;28;20020;-63
2022/05/27 11:41:01;;;;;;;1.30;0.88;;;24.20;44.70;;;;;;5054699;28;20764;-61
2022/05/27 11:43:45;;;;;;;1.35;1.00;;;24.20;44.70;;;;;;5053211;28;20055;-64
2022/05/27 11:46:14;;;;;;;1.63;1.05;;;24.20;44.60;;;;;;5059701;28;20025;-60
2022/05/27 11:48:55;;;;;;;1.55;0.90;;;24.20;44.50;;;;;;5057491;28;20060;-57
2022/05/27 11:51:43;;;;;;;1.25;0.80;;;24.20;44.60;;;;;;5052492;28;20439;-57
2022/05/27 11:54:17;;;;;;;2.55;1.00;;;24.20;44.60;;;;;;5056918;28;20036;-62
2022/05/27 11:57:01;;;;;;;1.85;1.00;;;24.20;44.50;;;;;;5054451;28;20115;-62
2022/05/27 11:59:39;;;;;;;1.90;0.80;;;24.20;44.40;;;;;;5056926;28;20502;-58
2022/05/27 12:02:42;;;;;;;1.50;1.00;;;24.20;44.40;;;;;;5055300;28;20036;-63
2022/05/27 12:05:19;;;;;;;1.75;1.10;;;24.10;44.40;;;;;;5059223;28;20753;-61
2022/05/27 12:08:17;;;;;;;1.58;0.82;;;24.10;44.50;;;;;;5058398;28;20372;-60
2022/05/27 12:10:45;;;;;;;1.67;1.05;;;24.20;44.50;;;;;;5059897;28;20057;-60
2022/05/27 12:13:17;;;;;;;1.38;0.80;;;24.10;44.60;;;;;;5058192;28;20222;-59
2022/05/27 12:15:54;;;;;;;2.67;0.80;;;24.20;44.70;;;;;;5056961;28;20392;-63
2022/05/27 12:18:45;;;;;;;1.70;0.90;;;24.10;44.70;;;;;;5057739;28;20635;-60
2022/05/27 12:21:15;;;;;;;1.52;0.95;;;24.20;44.60;;;;;;5054367;28;20028;-60
2022/05/27 12:23:47;;;;;;;1.70;0.90;;;24.10;44.20;;;;;;5057266;28;20032;-61
2022/05/27 12:26:14;;;;;;;1.02;0.80;;;24.10;43.90;;;;;;5056644;28;21567;-62
2022/05/27 12:28:43;;;;;;;1.25;0.80;;;24.10;44.00;;;;;;5057291;28;20038;-57
2022/05/27 12:31:10;;;;;;;1.60;0.93;;;24.10;43.50;;;;;;5054558;28;20119;-62
2022/05/27 12:33:38;;;;;;;1.88;0.90;;;24.10;43.40;;;;;;5055648;28;20040;-64
2022/05/27 12:36:05;;;;;;;1.38;0.80;;;24.10;43.40;;;;;;5053764;28;21968;-59
2022/05/27 12:38:37;;;;;;;1.73;0.80;;;24.10;43.40;;;;;;5054319;28;20697;-63
2022/05/27 12:41:08;;;;;;;1.65;0.90;;;24.10;43.40;;;;;;5056797;28;20035;-62
2022/05/27 12:43:36;;;;;;;1.50;0.90;;;24.10;43.40;;;;;;5055783;28;20028;-59
2022/05/27 12:46:02;;;;;;;1.33;0.90;;;24.10;43.40;;;;;;5056863;28;20029;-61
2022/05/27 12:48:35;;;;;;;1.38;0.88;;;24.00;43.30;;;;;;5056414;28;20058;-64
2022/05/27 12:51:16;;;;;;;1.08;0.70;;;24.00;43.30;;;;;;5056546;28;20029;-60
2022/05/27 12:53:46;;;;;;;0.70;0.70;;;24.00;43.50;;;;;;5056035;28;20024;-63
2022/05/27 13:02:19;;;;;;;1.10;0.80;;;24.00;43.70;;;;;;5058157;28;20043;-59
2022/05/27 13:04:53;;;;;;;1.20;0.80;;;24.00;43.80;;;;;;5054755;28;20157;-59
2022/05/27 13:07:28;;;;;;;1.92;0.90;;;24.00;43.90;;;;;;5052309;28;20024;-64
2022/05/27 13:09:54;;;;;;;1.20;0.88;;;24.00;44.00;;;;;;5053340;28;20091;-58
2022/05/27 13:12:42;;;;;;;1.00;0.77;;;24.00;44.10;;;;;;5059482;28;20025;-59
2022/05/27 13:15:31;;;;;;;1.38;0.85;;;24.00;44.10;;;;;;5054786;28;20020;-63
2022/05/27 13:18:15;;;;;;;;;;;24.00;44.20;;;;;;5056399;28;20067;-61
2022/05/27 13:20:51;;;;;;;0.73;0.70;;;24.00;44.20;;;;;;5055577;28;19920;-59
2022/05/27 13:23:21;;;;;;;1.38;0.77;;;24.00;44.30;;;;;;5056816;28;20554;-63
2022/05/27 13:26:01;;;;;;;1.05;0.80;;;24.00;44.50;;;;;;5055735;28;20029;-60
2022/05/27 13:28:33;;;;;;;1.08;0.70;;;24.00;44.40;;;;;;5057570;28;20028;-63
2022/05/27 13:31:02;;;;;;;1.08;0.73;;;24.00;44.40;;;;;;5055310;28;20033;-60
2022/05/27 13:33:33;;;;;;;1.25;0.80;;;24.00;44.50;;;;;;5057181;28;20036;-59
2022/05/27 13:36:03;;;;;;;1.00;0.80;;;23.90;44.50;;;;;;5054022;28;20028;-58
2022/05/27 13:38:35;;;;;;;0.90;0.80;;;24.00;45.10;;;;;;5056335;28;20024;-60
2022/05/27 13:41:14;;;;;;;0.95;0.70;;;24.00;44.60;;;;;;5056166;28;20060;-60
2022/05/27 13:43:41;;;;;;;1.27;0.88;;;23.90;44.70;;;;;;5051838;28;20033;-60
2022/05/27 13:46:31;;;;;;;1.60;0.95;;;23.90;44.70;;;;;;5056803;28;20028;-64
2022/05/27 13:49:04;;;;;;;1.42;0.85;;;23.90;44.80;;;;;;5056668;28;20035;-63
2022/05/27 13:51:30;;;;;;;1.50;0.75;;;23.90;44.80;;;;;;5055554;28;20095;-59
2022/05/27 13:53:55;;;;;;;0.70;0.70;;;23.90;44.90;;;;;;5053705;28;20124;-62